El Hierro > ESTACION METEOROLÓGICA Frontera

DATOS ACTUALES Online

Ultima actulizacion 32 minutos

19.1 ºC

Temperatura

70

Humedad (%)

989.39

Presión (mb)

0

Precipitación (mm)

7 SW

Viento (Km/h)

DATOS DIARIOS

Temperatura últimas 24 horas (ºC)

Humedad últimas 24 horas (%)

Presión atmosférica últimas 24 horas (mb)

Precipitaciones últimas 23 horas (mm)

Viento últimas 24 horas (Km/h)

Hora Temperatura (°C) ºC Precipitación (mm) mm Presión (mb) mb Humedad (%) % Viento (Km/h) km/h
28 - 09:00 20 0 989 57 22.9 N
28 - 10:00 19.9 0 989 65 18 N
28 - 11:00 20.4 0 989 62 16.7 N
28 - 12:00 20.3 0 990 62 21.8 N
28 - 13:00 21.1 0 990 60 19.8 N
28 - 14:00 21.2 0 989 60 27.3 N
28 - 15:00 21 0 989 63 18.8 N
28 - 16:00 22.3 0 989 57 31.6 N
28 - 17:00 22.6 0 989 54 22.8 N
28 - 18:00 22.5 0 989 54 25.1 N
28 - 19:00 21.6 0 989 61 27.1 N
28 - 20:00 21.1 0 989 62 14.9 N
28 - 21:00 20.1 0 989 65 14.7 N
28 - 22:00 20 0 990 65 18.4 NW
28 - 23:00 19.7 0 990 66 24.1 N
29 - 00:00 19.8 0 990 64 13.7 W
29 - 01:00 19.8 0 989 63 21 W
29 - 02:00 19.5 0 989 65 22.2 W
29 - 03:00 19.4 0 989 66 14.3 W
29 - 04:00 19.8 0 988 63 15.8 W
29 - 05:00 19.5 0 989 64 17.6 NW
29 - 06:00 19.7 0 989 62 13.5 NW
29 - 07:00 19.5 0 989 63 18 NW
29 - 08:00 19.1 0 989 70 7 SW
29 - 09:00
Apalmet utiliza cookies propias y de terceros para mejorar la usabilidad y la experiencia web. Política de cookies.